Time;durP1;ratioP1;P1;durP2;ratioP2;P2;SDS_P1;SDS_P2;PMS_P1;PMS_P2;Temp;Humidity;BMP_temperature;BMP_pressure;BME280_temperature;BME280_humidity;BME280_pressure;Samples;Min_cycle;Max_cycle;Signal;HPM_P1;HPM_P2
2021/09/09 00:02:11;;;;;;;3.67;2.20;;;;;;;15.14;71.14;100970.81;5030576;28;20274;-73
2021/09/09 00:04:40;;;;;;;4.10;2.27;;;;;;;15.16;71.49;100979.66;5030453;28;20206;-73
2021/09/09 00:07:10;;;;;;;5.50;2.60;;;;;;;15.15;71.54;100985.22;5030716;28;20194;-73
2021/09/09 00:09:39;;;;;;;3.53;2.23;;;;;;;15.16;71.81;100979.66;5032106;28;20264;-73
2021/09/09 00:12:08;;;;;;;3.43;2.30;;;;;;;15.08;72.57;100978.59;5030507;28;20825;-73
2021/09/09 00:14:36;;;;;;;6.20;2.40;;;;;;;15.07;71.67;100983.16;5028871;28;20238;-73
2021/09/09 00:17:05;;;;;;;3.40;2.10;;;;;;;14.99;71.90;100980.19;5027929;28;20221;-73
2021/09/09 00:19:33;;;;;;;3.17;2.13;;;;;;;14.91;72.53;100970.00;5030108;28;20215;-73
2021/09/09 00:22:02;;;;;;;7.77;2.03;;;;;;;14.89;72.45;100977.41;5044795;28;20345;-73
2021/09/09 00:24:32;;;;;;;4.97;2.40;;;;;;;14.83;71.39;100960.81;5029934;28;20260;-73
2021/09/09 00:27:00;;;;;;;3.00;2.00;;;;;;;14.93;71.50;100971.72;5045232;28;20224;-73
2021/09/09 00:29:30;;;;;;;3.13;2.07;;;;;;;14.96;71.09;100968.78;5045178;28;20207;-73
2021/09/09 00:31:58;;;;;;;2.87;2.07;;;;;;;14.99;70.25;100974.78;5029774;28;20211;-73
2021/09/09 00:34:29;;;;;;;3.63;2.00;;;;;;;14.98;71.19;100967.66;5045122;28;20889;-73
2021/09/09 00:36:58;;;;;;;5.73;2.30;;;;;;;14.86;71.64;100969.53;5028339;28;20792;-73
2021/09/09 00:39:26;;;;;;;356.03;255.23;;;;;;;14.76;72.15;100973.13;5029579;28;20214;-73
2021/09/09 00:41:55;;;;;;;49.50;33.27;;;;;;;14.77;72.07;100972.16;5029516;28;20550;-73
2021/09/09 00:44:25;;;;;;;16.70;11.43;;;;;;;14.73;72.77;100967.97;5027153;28;20202;-73
2021/09/09 00:47:02;;;;;;;6.20;4.93;;;;;;;14.74;72.28;100969.69;5029205;28;20269;-73
2021/09/09 00:49:31;;;;;;;5.83;3.23;;;;;;;14.72;72.59;100974.38;5027818;28;20206;-73
2021/09/09 00:51:59;;;;;;;3.97;2.53;;;;;;;14.67;73.33;100979.25;5028617;28;20767;-73
2021/09/09 00:54:28;;;;;;;2.70;2.43;;;;;;;14.63;72.81;100977.78;5029337;28;20617;-74
2021/09/09 00:56:58;;;;;;;3.07;2.60;;;;;;;14.64;72.72;100982.22;5029430;28;20223;-73
2021/09/09 00:59:27;;;;;;;5.20;2.37;;;;;;;14.63;72.45;100977.78;5043021;28;20209;-74
2021/09/09 01:01:56;;;;;;;2.67;2.40;;;;;;;14.57;72.72;100980.03;5041642;28;20688;-74
2021/09/09 01:04:24;;;;;;;8.40;3.23;;;;;;;14.52;72.45;100971.44;5029056;28;20285;-73
2021/09/09 01:06:53;;;;;;;5.13;2.87;;;;;;;14.52;72.58;100981.38;5027140;28;20202;-73
2021/09/09 01:09:22;;;;;;;10.47;5.87;;;;;;;14.48;72.50;100978.06;5027237;28;20255;-73
2021/09/09 01:11:50;;;;;;;4.87;2.17;;;;;;;14.53;71.67;100978.56;5026451;28;20266;-73
2021/09/09 01:14:20;;;;;;;3.53;2.03;;;;;;;14.28;71.37;100939.09;5027081;28;20202;-74
2021/09/09 01:16:49;;;;;;;4.97;2.17;;;;;;;14.54;70.87;100977.56;5032043;28;20231;-73
2021/09/09 01:19:17;;;;;;;4.17;2.50;;;;;;;14.50;71.47;100968.00;5028672;28;20276;-73
2021/09/09 01:21:46;;;;;;;2.87;2.20;;;;;;;14.46;71.46;100971.94;5028895;28;20198;-73
2021/09/09 01:24:16;;;;;;;2.53;1.90;;;;;;;14.37;71.05;100953.69;5028968;28;20206;-73
2021/09/09 01:26:51;;;;;;;3.20;2.20;;;;;;;14.46;71.19;100974.63;5028652;28;20202;-73
2021/09/09 01:29:20;;;;;;;2.80;2.13;;;;;;;14.42;71.42;100973.13;5027989;28;20202;-73
2021/09/09 01:31:48;;;;;;;6.00;2.40;;;;;;;14.23;73.18;100975.56;5028978;28;20259;-73
2021/09/09 01:34:17;;;;;;;3.63;2.03;;;;;;;14.16;73.16;100967.09;5028718;28;20691;-73
2021/09/09 01:36:46;;;;;;;7.33;2.17;;;;;;;14.17;73.15;100976.06;5028601;28;20229;-73
2021/09/09 01:39:16;;;;;;;3.57;2.30;;;;;;;14.14;72.85;100971.75;5031456;28;20198;-73
2021/09/09 01:41:44;;;;;;;2.80;2.23;;;;;;;13.96;73.08;100954.28;5029612;28;20271;-74
2021/09/09 01:44:12;;;;;;;3.67;2.13;;;;;;;14.09;72.53;100970.41;5044616;28;20263;-74
2021/09/09 01:46:40;;;;;;;4.10;2.10;;;;;;;14.02;73.22;100975.41;5029239;28;20202;-74
2021/09/09 01:49:08;;;;;;;3.10;1.97;;;;;;;13.91;73.65;100956.50;5029632;28;20194;-73
2021/09/09 01:51:36;;;;;;;3.00;2.03;;;;;;;13.98;73.23;100966.69;5029856;28;20206;-73
2021/09/09 01:54:05;;;;;;;4.43;2.20;;;;;;;13.88;73.59;100968.41;5041616;28;20204;-73
2021/09/09 01:56:34;;;;;;;7.43;2.60;;;;;;;13.88;73.77;100968.41;5029269;28;20875;-73
2021/09/09 01:59:03;;;;;;;4.20;2.40;;;;;;;13.88;72.99;100957.59;5029430;28;20198;-73
2021/09/09 02:01:31;;;;;;;2.47;1.97;;;;;;;13.61;73.67;100930.06;5029311;28;20221;-74
2021/09/09 02:04:01;;;;;;;2.70;2.03;;;;;;;13.83;73.50;100962.50;5029575;28;20212;-74
2021/09/09 02:06:29;;;;;;;4.83;2.50;;;;;;;13.74;74.24;100968.59;5029293;28;20249;-73
2021/09/09 02:08:57;;;;;;;5.17;2.57;;;;;;;13.42;75.33;100916.25;5029435;28;20210;-73
2021/09/09 02:11:25;;;;;;;7.27;2.63;;;;;;;13.78;75.37;100964.72;5029077;28;20720;-74
2021/09/09 02:13:55;;;;;;;6.30;3.00;;;;;;;13.79;75.81;100962.88;5027822;28;20209;-73
2021/09/09 02:16:23;;;;;;;5.50;3.00;;;;;;;13.83;75.43;100965.22;5029090;28;20217;-73
2021/09/09 02:18:51;;;;;;;4.53;2.70;;;;;;;13.73;76.34;100928.22;5030290;28;20237;-73
2021/09/09 02:21:19;;;;;;;6.37;3.37;;;;;;;13.92;75.89;100950.97;5032801;28;20264;-73
2021/09/09 02:23:47;;;;;;;5.73;3.50;;;;;;;13.97;75.91;100956.88;5031912;28;20261;-74
2021/09/09 02:26:15;;;;;;;5.73;3.23;;;;;;;13.99;76.55;100952.22;5046635;28;20202;-73
2021/09/09 02:28:43;;;;;;;6.47;3.60;;;;;;;13.95;77.07;100949.88;5030368;28;20201;-73
2021/09/09 02:31:13;;;;;;;9.90;3.63;;;;;;;14.03;76.44;100957.38;5033005;28;20198;-74
2021/09/09 02:33:41;;;;;;;7.17;4.30;;;;;;;14.09;75.77;100956.91;5032237;28;20202;-74
2021/09/09 02:36:09;;;;;;;9.70;4.10;;;;;;;13.97;75.10;100921.75;5032758;28;20197;-74
2021/09/09 02:38:37;;;;;;;8.53;3.80;;;;;;;14.20;75.47;100946.97;5032459;28;20222;-74
2021/09/09 02:41:05;;;;;;;7.83;4.47;;;;;;;14.07;76.77;100923.72;5030065;28;20200;-73
2021/09/09 02:43:34;;;;;;;12.50;4.27;;;;;;;14.25;76.75;100941.19;5032478;28;20206;-74
2021/09/09 02:46:02;;;;;;;8.20;4.10;;;;;;;14.25;76.55;100944.75;5032366;28;20249;-73
2021/09/09 02:48:31;;;;;;;11.23;4.80;;;;;;;14.28;77.61;100941.78;5032183;28;20762;-73
2021/09/09 02:50:59;;;;;;;13.67;4.97;;;;;;;14.32;78.80;100946.94;5032531;28;20208;-73
2021/09/09 02:53:27;;;;;;;9.07;4.80;;;;;;;14.36;78.23;100941.16;5031178;28;20202;-73
2021/09/09 02:55:56;;;;;;;9.63;4.30;;;;;;;14.31;78.55;100929.88;5032266;28;20194;-73
2021/09/09 02:58:24;;;;;;;6.57;4.37;;;;;;;14.43;77.36;100933.47;5028269;28;20284;-73
2021/09/09 03:00:52;;;;;;;7.33;4.13;;;;;;;14.40;78.31;100937.25;5045934;28;20267;-73
2021/09/09 03:03:21;;;;;;;7.10;4.13;;;;;;;14.40;78.38;100939.97;5030189;28;20202;-73
2021/09/09 03:05:51;;;;;;;7.97;4.07;;;;;;;14.45;78.34;100936.91;5028879;28;20212;-73
2021/09/09 03:08:19;;;;;;;7.97;4.43;;;;;;;14.46;78.65;100934.09;5027527;28;20236;-73
2021/09/09 03:10:47;;;;;;;7.77;4.40;;;;;;;14.41;78.61;100922.78;5027264;28;20557;-73
2021/09/09 03:13:15;;;;;;;9.23;4.37;;;;;;;14.43;77.67;100919.97;5030519;28;20256;-74
2021/09/09 03:15:43;;;;;;;13.73;4.53;;;;;;;14.44;78.78;100922.56;5030012;28;20202;-74
2021/09/09 03:18:11;;;;;;;9.00;4.73;;;;;;;14.49;78.35;100927.56;5031583;28;20755;-74
2021/09/09 03:20:39;;;;;;;9.43;4.50;;;;;;;14.46;78.05;100930.53;5031492;28;20830;-74
2021/09/09 03:23:08;;;;;;;5.40;3.87;;;;;;;14.42;78.54;100920.94;5031935;28;20214;-74
2021/09/09 03:25:36;;;;;;;8.80;4.40;;;;;;;14.48;77.38;100926.72;5031799;28;20236;-74
2021/09/09 03:28:05;;;;;;;8.67;4.23;;;;;;;14.44;78.12;100925.25;5029013;28;20195;-74
2021/09/09 03:30:33;;;;;;;8.37;4.27;;;;;;;14.44;78.17;100929.81;5025685;28;20228;-74
2021/09/09 03:33:01;;;;;;;6.33;4.07;;;;;;;14.38;78.67;100923.00;5031221;28;20202;-74
2021/09/09 03:35:30;;;;;;;10.03;4.50;;;;;;;14.36;78.69;100927.66;5030005;28;20234;-73
2021/09/09 03:37:58;;;;;;;9.67;4.53;;;;;;;14.32;79.06;100923.50;5030708;28;20685;-73
2021/09/09 03:40:27;;;;;;;10.53;4.67;;;;;;;14.34;79.31;100923.38;5030771;28;20660;-73
2021/09/09 03:42:55;;;;;;;8.93;4.43;;;;;;;14.30;78.63;100912.81;5030371;28;20276;-70
2021/09/09 03:45:23;;;;;;;8.17;4.30;;;;;;;14.32;78.38;100923.50;5030435;28;20210;-72
2021/09/09 03:47:51;;;;;;;6.47;4.00;;;;;;;14.27;78.80;100917.59;5023940;28;20226;-72
2021/09/09 03:50:19;;;;;;;19.10;4.50;;;;;;;14.10;79.36;100901.91;5030441;28;20205;-73
2021/09/09 03:52:47;;;;;;;8.10;4.43;;;;;;;14.21;78.59;100912.69;5031524;28;20194;-73
2021/09/09 03:55:16;;;;;;;7.83;4.37;;;;;;;14.20;78.97;100913.69;5031392;28;20213;-73
2021/09/09 03:57:46;;;;;;;10.63;4.50;;;;;;;14.21;78.34;100915.41;5031192;28;20296;-73
2021/09/09 04:00:15;;;;;;;7.03;4.07;;;;;;;14.11;79.42;100901.78;5029743;28;20217;-73
2021/09/09 04:02:43;;;;;;;7.30;4.10;;;;;;;14.17;78.21;100913.94;5031373;28;20217;-73
2021/09/09 04:05:12;;;;;;;6.70;4.13;;;;;;;14.18;77.82;100904.84;5031608;28;20197;-73
2021/09/09 04:07:40;;;;;;;9.17;4.10;;;;;;;14.16;77.94;100898.72;5030853;28;20212;-73
2021/09/09 04:10:09;;;;;;;6.23;3.87;;;;;;;14.16;77.84;100890.59;5030705;28;20202;-72
2021/09/09 04:12:38;;;;;;;7.80;4.23;;;;;;;13.84;78.04;100856.25;5031147;28;20220;-73
2021/09/09 04:15:09;;;;;;;7.97;4.70;;;;;;;14.12;77.95;100891.84;5033679;28;20211;-73
2021/09/09 04:17:37;;;;;;;10.03;4.80;;;;;;;14.13;77.45;100894.41;5028502;28;20240;-73
2021/09/09 04:20:07;;;;;;;9.80;4.80;;;;;;;13.90;77.85;100861.13;5030903;28;20198;-72
2021/09/09 04:22:36;;;;;;;9.17;4.67;;;;;;;14.09;78.20;100889.38;5030971;28;20579;-73
2021/09/09 04:25:05;;;;;;;9.67;4.40;;;;;;;14.09;77.36;100892.09;5030666;28;20210;-73
2021/09/09 04:27:34;;;;;;;7.40;3.80;;;;;;;14.08;77.26;100890.34;5028723;28;20569;-73
2021/09/09 04:30:03;;;;;;;8.73;4.70;;;;;;;14.01;77.71;100881.00;5029431;28;20199;-73
2021/09/09 04:32:33;;;;;;;9.23;4.23;;;;;;;13.99;77.87;100886.53;5030628;28;20206;-74
2021/09/09 04:35:01;;;;;;;6.87;4.00;;;;;;;14.02;77.59;100893.53;5030491;28;20949;-73
2021/09/09 04:37:29;;;;;;;5.67;3.60;;;;;;;13.99;76.85;100879.28;5029285;28;20209;-73
2021/09/09 04:39:57;;;;;;;7.70;4.20;;;;;;;14.04;77.05;100880.75;5025860;28;20845;-72
2021/09/09 04:42:25;;;;;;;12.83;4.00;;;;;;;14.05;76.45;100877.09;5029629;28;20220;-72
2021/09/09 04:44:53;;;;;;;7.27;3.70;;;;;;;14.05;77.24;100877.09;5030632;28;20214;-72
2021/09/09 04:47:21;;;;;;;6.53;3.93;;;;;;;14.03;77.30;100877.22;5027674;28;20194;-72
2021/09/09 04:49:51;;;;;;;7.67;4.10;;;;;;;14.09;76.82;100881.28;5030720;28;20253;-73
2021/09/09 04:52:19;;;;;;;6.83;3.60;;;;;;;14.14;76.28;100881.78;5030394;28;20198;-72
2021/09/09 04:54:47;;;;;;;6.17;3.80;;;;;;;14.25;75.36;100877.22;5026276;28;20681;-72
2021/09/09 04:57:15;;;;;;;8.80;4.10;;;;;;;14.32;75.41;100877.56;5029615;28;20205;-72
2021/09/09 04:59:43;;;;;;;7.33;4.20;;;;;;;14.41;75.71;100876.84;5029463;28;20267;-71
2021/09/09 05:02:11;;;;;;;8.47;4.47;;;;;;;14.48;75.80;100878.06;5028301;28;20256;-72
2021/09/09 05:04:39;;;;;;;6.87;3.90;;;;;;;14.49;76.22;100887.03;5026633;28;20197;-72
2021/09/09 05:07:09;;;;;;;9.20;3.73;;;;;;;14.52;76.91;100881.38;5027484;28;20214;-73
2021/09/09 05:09:37;;;;;;;7.10;4.10;;;;;;;14.52;76.78;100875.97;5027079;28;20194;-73
2021/09/09 05:12:05;;;;;;;6.37;3.43;;;;;;;14.42;76.44;100853.38;5028447;28;20255;-73
2021/09/09 05:14:35;;;;;;;12.10;4.63;;;;;;;14.65;76.62;100873.09;5027626;28;20339;-72
2021/09/09 05:17:03;;;;;;;9.40;4.90;;;;;;;14.73;77.57;100878.75;5025714;28;20194;-74
2021/09/09 05:19:31;;;;;;;6.20;4.00;;;;;;;14.85;77.29;100875.88;5026962;28;20639;-73
2021/09/09 05:21:59;;;;;;;6.73;3.80;;;;;;;14.83;77.92;100875.16;5025346;28;20269;-74
2021/09/09 05:24:29;;;;;;;8.80;4.37;;;;;;;14.96;77.19;100872.25;5026604;28;20203;-74
2021/09/09 05:26:57;;;;;;;8.33;4.60;;;;;;;15.03;77.96;100869.94;5026974;28;20653;-72
2021/09/09 05:29:25;;;;;;;8.27;4.57;;;;;;;15.19;77.80;100870.31;5027235;28;20697;-73
2021/09/09 05:31:53;;;;;;;6.37;3.50;;;;;;;15.25;78.99;100872.50;5027490;28;20964;-76
2021/09/09 05:34:21;;;;;;;7.43;4.30;;;;;;;15.39;78.74;100876.75;5042792;28;20198;-75
2021/09/09 05:36:49;;;;;;;7.57;4.10;;;;;;;15.51;78.50;100864.84;5028215;28;20199;-74
2021/09/09 05:39:17;;;;;;;9.67;4.80;;;;;;;15.55;79.24;100869.00;5027989;28;20253;-74
2021/09/09 05:41:46;;;;;;;8.17;4.30;;;;;;;15.72;79.65;100865.75;5028584;28;20207;-73
2021/09/09 05:44:14;;;;;;;7.97;4.43;;;;;;;15.63;79.26;100834.06;5027017;28;20606;-73
2021/09/09 05:46:42;;;;;;;7.77;4.70;;;;;;;15.94;79.71;100864.72;5029017;28;20607;-73
2021/09/09 05:49:10;;;;;;;8.83;4.40;;;;;;;16.14;79.07;100866.50;5028353;28;20266;-73
2021/09/09 05:51:38;;;;;;;10.30;5.20;;;;;;;16.27;79.67;100855.44;5043243;28;20218;-73
2021/09/09 05:54:06;;;;;;;12.30;5.50;;;;;;;16.22;79.25;100833.28;5025291;28;20241;-74
2021/09/09 05:56:34;;;;;;;12.43;6.67;;;;;;;16.51;79.05;100849.63;5032190;28;20704;-73
2021/09/09 05:59:04;;;;;;;14.10;6.60;;;;;;;16.84;78.88;100870.16;5045352;28;20218;-73
2021/09/09 06:01:32;;;;;;;15.93;6.70;;;;;;;16.84;79.04;100836.75;5044313;28;20206;-73
2021/09/09 06:04:01;;;;;;;12.50;6.40;;;;;;;17.25;77.36;100863.56;5030948;28;20249;-73
2021/09/09 06:06:30;;;;;;;16.43;6.90;;;;;;;17.46;77.44;100868.84;5031759;28;20202;-74
2021/09/09 06:08:58;;;;;;;13.83;6.40;;;;;;;17.62;78.21;100865.53;5031913;28;20195;-73
2021/09/09 06:11:26;;;;;;;14.20;6.67;;;;;;;17.82;77.50;100855.50;5031519;28;20268;-73
2021/09/09 06:13:54;;;;;;;14.47;7.00;;;;;;;17.93;75.41;100836.28;5031567;28;20206;-74
2021/09/09 06:16:23;;;;;;;10.57;6.17;;;;;;;18.18;75.88;100857.34;5031267;28;20206;-74
2021/09/09 06:18:51;;;;;;;15.37;6.67;;;;;;;18.39;75.36;100864.41;5031318;28;20242;-74
2021/09/09 06:21:19;;;;;;;9.77;5.20;;;;;;;18.62;74.28;100860.28;5030147;28;20213;-74
2021/09/09 06:23:47;;;;;;;16.67;6.43;;;;;;;18.77;73.51;100863.34;5030343;28;20194;-74
2021/09/09 06:26:18;;;;;;;593.47;424.60;;;;;;;19.01;72.27;100860.03;5029370;28;20654;-74
2021/09/09 06:28:46;;;;;;;57.40;36.57;;;;;;;19.14;72.54;100871.38;5030731;28;20240;-74
2021/09/09 06:31:14;;;;;;;14.77;9.17;;;;;;;19.35;71.81;100863.72;5030742;28;20214;-74
2021/09/09 06:33:44;;;;;;;16.23;13.97;;;;;;;19.61;70.03;100863.78;5017002;28;20199;-74
2021/09/09 06:36:12;;;;;;;16.53;8.17;;;;;;;19.80;69.46;100869.03;5031808;28;20269;-74
2021/09/09 06:38:40;;;;;;;13.23;6.53;;;;;;;19.91;69.06;100848.84;5031474;28;20198;-74
2021/09/09 06:41:08;;;;;;;13.17;6.20;;;;;;;20.17;68.55;100867.84;5031561;28;20214;-74
2021/09/09 06:43:36;;;;;;;14.17;6.47;;;;;;;20.27;67.91;100862.28;5030963;28;20362;-74
2021/09/09 06:46:04;;;;;;;12.73;5.80;;;;;;;20.38;68.78;100848.34;5031392;28;20202;-74
2021/09/09 06:48:33;;;;;;;12.57;5.93;;;;;;;20.46;67.20;100834.75;5031086;28;20673;-74
2021/09/09 06:51:02;;;;;;;18.33;5.93;;;;;;;;;;5031314;28;20267;-75
2021/09/09 06:53:31;;;;;;;13.60;5.90;;;;;;;20.85;66.51;100862.34;5046489;28;20198;-75
2021/09/09 06:55:59;;;;;;;10.10;5.80;;;;;;;21.06;65.20;100856.38;5031854;28;20202;-74
2021/09/09 06:58:27;;;;;;;19.27;6.03;;;;;;;21.20;63.80;100869.41;5031365;28;20207;-74
2021/09/09 07:00:56;;;;;;;12.30;5.30;;;;;;;21.31;62.28;100849.94;5017468;28;20236;-74
2021/09/09 07:03:29;;;;;;;11.83;5.30;;;;;;;21.60;61.55;100864.97;5029496;28;20202;-75
2021/09/09 07:05:58;;;;;;;12.07;5.83;;;;;;;21.61;62.82;100858.47;5030609;28;20268;-74
2021/09/09 07:08:27;;;;;;;14.87;5.83;;;;;;;21.43;63.17;100823.16;5030926;28;20209;-74
2021/09/09 07:10:55;;;;;;;15.27;5.70;;;;;;;21.66;62.11;100850.59;5030863;28;20249;-74
2021/09/09 07:13:23;;;;;;;13.07;5.50;;;;;;;21.58;62.38;100845.16;5030713;28;20194;-74
2021/09/09 07:15:51;;;;;;;10.07;5.47;;;;;;;21.66;62.03;100854.19;5030779;28;20205;-74
2021/09/09 07:18:20;;;;;;;9.90;5.43;;;;;;;21.60;62.24;100857.63;5029607;28;20527;-74
2021/09/09 07:20:48;;;;;;;11.23;5.77;;;;;;;21.68;61.91;100854.00;5030799;28;20634;-74
2021/09/09 07:23:16;;;;;;;10.03;5.40;;;;;;;21.90;62.04;100847.81;5026287;28;20677;-75
2021/09/09 07:25:46;;;;;;;11.60;5.50;;;;;;;21.99;62.11;100848.66;5030071;28;20199;-74
2021/09/09 07:28:15;;;;;;;12.37;5.67;;;;;;;21.99;62.31;100846.75;5026917;28;20699;-75
2021/09/09 07:30:43;;;;;;;8.97;5.13;;;;;;;21.88;62.34;100836.22;5028476;28;20202;-75
2021/09/09 07:33:11;;;;;;;7.50;4.60;;;;;;;21.92;61.63;100839.44;5025345;28;20214;-74
2021/09/09 07:35:40;;;;;;;7.70;4.60;;;;;;;21.99;61.23;100844.03;5026331;28;20203;-74
2021/09/09 07:38:08;;;;;;;11.23;4.67;;;;;;;21.76;62.18;100844.97;5025539;28;20191;-74
2021/09/09 07:40:36;;;;;;;10.07;5.07;;;;;;;21.86;61.09;100842.88;5025557;28;20765;-74
2021/09/09 07:43:05;;;;;;;9.33;5.00;;;;;;;21.77;61.49;100841.19;5027833;28;20658;-74
2021/09/09 07:45:34;;;;;;;9.07;4.70;;;;;;;21.70;61.76;100843.75;5042008;28;20203;-74
2021/09/09 07:48:03;;;;;;;11.03;5.10;;;;;;;21.57;62.09;100848.91;5026723;28;20414;-74
2021/09/09 07:50:31;;;;;;;9.87;5.07;;;;;;;21.56;61.76;100837.13;5041608;28;20329;-74
2021/09/09 07:52:59;;;;;;;10.47;5.00;;;;;;;21.27;62.61;100814.94;5041821;28;20226;-74
2021/09/09 07:55:27;;;;;;;11.70;5.50;;;;;;;21.32;62.86;100835.25;5026832;28;20210;-74
2021/09/09 07:57:56;;;;;;;9.47;5.10;;;;;;;21.30;62.74;100837.31;5026377;28;20293;-74
2021/09/09 08:00:25;;;;;;;19.63;6.33;;;;;;;21.13;63.27;100838.31;5026810;28;20226;-74
2021/09/09 08:02:53;;;;;;;11.80;5.83;;;;;;;21.19;62.64;100836.78;5025901;28;20209;-73
2021/09/09 08:05:22;;;;;;;10.70;5.70;;;;;;;21.01;63.76;100836.94;5025895;28;20206;-74
2021/09/09 08:07:50;;;;;;;14.47;5.73;;;;;;;21.02;63.15;100834.03;5042222;28;20313;-73
2021/09/09 08:10:19;;;;;;;14.30;6.33;;;;;;;20.94;63.86;100830.44;5027255;28;20559;-74
2021/09/09 08:12:48;;;;;;;13.53;6.77;;;;;;;20.65;64.74;100807.19;5025926;28;20204;-73
2021/09/09 08:15:17;;;;;;;12.93;5.80;;;;;;;20.63;64.04;100783.81;5027823;28;20249;-73
2021/09/09 08:17:47;;;;;;;14.17;6.30;;;;;;;20.90;64.19;100842.72;5025365;28;20227;-73
2021/09/09 08:20:15;;;;;;;13.57;6.77;;;;;;;20.80;64.99;100836.53;5027965;28;20221;-73
2021/09/09 08:22:44;;;;;;;14.87;7.47;;;;;;;20.85;64.10;100842.38;5025139;28;20572;-74
2021/09/09 08:25:13;;;;;;;16.57;7.43;;;;;;;20.76;64.70;100836.88;5023476;28;20202;-73
2021/09/09 08:27:41;;;;;;;17.47;7.30;;;;;;;20.66;65.52;100830.72;5013155;28;20274;-73
2021/09/09 08:30:09;;;;;;;14.67;7.03;;;;;;;20.68;65.93;100828.69;5020257;28;20210;-73
2021/09/09 08:32:38;;;;;;;14.17;6.57;;;;;;;20.83;64.20;100828.06;5033926;28;20672;-73
2021/09/09 08:35:10;;;;;;;13.93;7.10;;;;;;;20.77;63.41;100840.47;5018531;28;20206;-74
2021/09/09 08:37:38;;;;;;;17.33;7.77;;;;;;;20.52;65.80;100834.13;5037322;28;20401;-74
2021/09/09 08:40:09;;;;;;;16.37;7.43;;;;;;;20.50;65.69;100824.38;5023989;28;20280;-73
2021/09/09 08:42:40;;;;;;;18.03;7.37;;;;;;;20.51;66.67;100835.16;5018258;28;20225;-73
2021/09/09 08:45:10;;;;;;;16.13;7.17;;;;;;;20.60;65.78;100842.31;5019450;28;20665;-73
2021/09/09 08:47:40;;;;;;;16.83;7.00;;;;;;;20.58;65.95;100840.78;5014213;28;20238;-74
2021/09/09 08:50:11;;;;;;;23.90;7.40;;;;;;;20.60;66.19;100841.47;5014350;28;20214;-74
2021/09/09 08:52:40;;;;;;;19.27;6.80;;;;;;;20.62;64.87;100842.16;5022310;28;20803;-74
2021/09/09 08:55:09;;;;;;;18.53;7.70;;;;;;;20.59;65.88;100837.88;5013451;28;20195;-73
2021/09/09 08:57:38;;;;;;;16.47;7.33;;;;;;;20.59;66.33;100837.88;5018596;28;20387;-74
2021/09/09 09:00:07;;;;;;;17.03;7.33;;;;;;;20.44;67.10;100836.81;5020651;28;20265;-74
2021/09/09 09:02:47;;;;;;;17.07;6.47;;;;;;;20.44;67.81;100840.38;5018389;28;20203;-74
2021/09/09 09:05:17;;;;;;;13.60;6.30;;;;;;;20.60;66.89;100836.88;5036840;28;20301;-74
2021/09/09 09:07:45;;;;;;;18.10;7.40;;;;;;;20.57;66.45;100829.00;5018245;28;20548;-74
2021/09/09 09:10:13;;;;;;;15.17;7.43;;;;;;;20.68;65.78;100831.41;5016263;28;20202;-74
2021/09/09 09:12:43;;;;;;;17.83;7.00;;;;;;;20.70;66.46;100831.25;5016670;28;20253;-74
2021/09/09 09:15:16;;;;;;;13.50;6.40;;;;;;;20.83;66.06;100830.78;5015864;28;20203;-74
2021/09/09 09:18:01;;;;;;;15.30;6.67;;;;;;;20.87;65.78;100833.00;5013281;28;20227;-74
2021/09/09 09:20:46;;;;;;;16.83;7.07;;;;;;;20.84;66.10;100824.28;5023097;28;20594;-74
2021/09/09 09:23:18;;;;;;;14.83;7.07;;;;;;;20.95;64.85;100827.53;5014293;28;20676;-74
2021/09/09 09:25:51;;;;;;;15.17;6.90;;;;;;;20.91;64.62;100822.59;5021057;28;20248;-74
2021/09/09 09:28:42;;;;;;;11.87;5.63;;;;;;;21.00;64.82;100821.56;5016571;28;20198;-74
2021/09/09 09:31:13;;;;;;;12.80;6.33;;;;;;;21.04;64.79;100820.19;5019941;28;20191;-74
2021/09/09 09:33:42;;;;;;;12.90;6.50;;;;;;;21.09;64.92;100817.81;5037159;28;20214;-74
2021/09/09 09:36:21;;;;;;;11.30;6.07;;;;;;;21.21;64.72;100827.38;5022335;28;20669;-74
2021/09/09 09:38:50;;;;;;;12.20;6.47;;;;;;;21.15;62.69;100795.28;5020703;28;20206;-74
2021/09/09 09:41:20;;;;;;;13.40;5.97;;;;;;;21.24;63.92;100824.34;5015755;28;20229;-74
2021/09/09 09:43:54;;;;;;;16.07;6.70;;;;;;;21.19;64.99;100828.59;5016711;28;20206;-74
2021/09/09 09:46:27;;;;;;;12.87;6.67;;;;;;;21.22;62.92;100800.91;5017046;28;20262;-74
2021/09/09 09:48:56;;;;;;;14.27;6.03;;;;;;;21.44;60.68;100813.06;5015144;28;20278;-74
2021/09/09 09:51:41;;;;;;;12.80;6.80;;;;;;;21.46;62.74;100813.75;5017566;28;20198;-74
2021/09/09 09:54:11;;;;;;;14.13;6.90;;;;;;;21.59;60.75;100814.91;5015591;28;20693;-74
2021/09/09 09:56:39;;;;;;;15.97;7.20;;;;;;;21.73;60.35;100815.22;5015784;28;20623;-73
2021/09/09 09:59:08;;;;;;;12.17;6.30;;;;;;;21.70;61.28;100805.47;5029746;28;20214;-74
2021/09/09 10:01:38;;;;;;;18.53;7.47;;;;;;;21.81;61.29;100810.59;5020578;28;20788;-74
2021/09/09 10:04:08;;;;;;;15.67;7.67;;;;;;;21.82;61.46;100805.97;5022681;28;20200;-74
2021/09/09 10:06:43;;;;;;;17.57;7.30;;;;;;;21.86;62.13;100799.97;5023484;28;20424;-74
2021/09/09 10:09:12;;;;;;;15.23;7.47;;;;;;;21.85;62.06;100798.28;5015948;28;20662;-74
2021/09/09 10:11:40;;;;;;;18.10;7.40;;;;;;;21.95;62.73;100809.00;5017936;28;20202;-74
2021/09/09 10:14:16;;;;;;;21.97;7.90;;;;;;;22.00;62.25;100812.91;5015968;28;20718;-74
2021/09/09 10:16:45;;;;;;;15.60;7.67;;;;;;;21.98;61.98;100776.66;5021237;28;20244;-74
2021/09/09 10:19:22;;;;;;;16.23;7.27;;;;;;;22.30;60.22;100805.81;5013671;28;20227;-74
2021/09/09 10:21:53;;;;;;;18.30;7.57;;;;;;;22.40;60.80;100802.88;5017691;28;20218;-74
2021/09/09 10:24:29;;;;;;;17.60;7.37;;;;;;;22.43;61.28;100799.75;5022227;28;20211;-74
2021/09/09 10:27:19;;;;;;;15.33;7.50;;;;;;;22.65;60.12;100794.47;5018252;28;20245;-74
2021/09/09 10:29:49;;;;;;;16.93;8.23;;;;;;;22.81;59.47;100788.94;5012173;28;20279;-74
2021/09/09 10:32:49;;;;;;;24.20;8.90;;;;;;;22.73;60.84;100791.72;5019624;28;20198;-74
2021/09/09 10:35:31;;;;;;;15.47;7.10;;;;;;;23.00;58.76;100793.09;5029888;28;20253;-74
2021/09/09 10:38:27;;;;;;;15.83;7.43;;;;;;;22.97;60.27;100782.50;5021063;28;20425;-74
2021/09/09 10:40:56;;;;;;;14.03;7.27;;;;;;;23.08;59.58;100760.97;5016465;28;20638;-74
2021/09/09 10:43:51;;;;;;;17.67;7.97;;;;;;;23.39;58.30;100781.94;5022740;28;20245;-74
2021/09/09 10:46:19;;;;;;;13.40;7.70;;;;;;;23.53;57.08;100784.69;5029027;28;20206;-74
2021/09/09 10:49:05;;;;;;;15.33;7.93;;;;;;;23.73;56.58;100773.22;5023953;28;20636;-74
2021/09/09 10:51:33;;;;;;;15.57;7.40;;;;;;;23.62;57.33;100765.47;5018936;28;20194;-74
2021/09/09 10:54:03;;;;;;;16.10;7.43;;;;;;;23.97;56.84;100766.59;5021783;28;20199;-74
2021/09/09 10:56:36;;;;;;;20.17;8.20;;;;;;;23.85;55.57;100722.28;5026159;28;20219;-74
2021/09/09 10:59:10;;;;;;;31.00;19.77;;;;;;;24.47;54.39;100754.75;5023258;28;20735;-74
2021/09/09 11:01:41;;;;;;;18.50;11.27;;;;;;;24.61;54.14;100764.00;5022562;28;20234;-74
2021/09/09 11:04:25;;;;;;;12.90;7.43;;;;;;;24.52;54.42;100752.31;5025660;28;20587;-74
2021/09/09 11:06:54;;;;;;;20.93;12.60;;;;;;;24.78;54.06;100763.53;5021166;28;20206;-74
2021/09/09 11:09:25;;;;;;;20.43;11.87;;;;;;;24.78;54.55;100768.19;5025870;28;20210;-75
2021/09/09 11:11:58;;;;;;;28.93;19.10;;;;;;;25.10;54.30;100777.81;5036539;28;20252;-74
2021/09/09 11:14:27;;;;;;;14.93;8.27;;;;;;;25.21;54.41;100762.72;5023459;28;20665;-75
2021/09/09 11:16:55;;;;;;;12.37;6.93;;;;;;;25.18;55.08;100771.38;5021143;28;20668;-74
2021/09/09 11:19:27;;;;;;;18.37;12.13;;;;;;;25.43;53.31;100769.88;5020438;28;20203;-74
2021/09/09 11:22:02;;;;;;;19.30;12.07;;;;;;;25.55;52.91;100771.00;5022570;28;20214;-74
2021/09/09 11:24:36;;;;;;;16.03;10.30;;;;;;;25.73;52.24;100762.28;5023370;28;20609;-75
2021/09/09 11:27:13;;;;;;;15.00;7.37;;;;;;;25.69;51.59;100749.94;5022998;28;20194;-75
2021/09/09 11:29:43;;;;;;;12.73;8.63;;;;;;;25.95;51.82;100771.28;5030649;28;20214;-75
2021/09/09 11:32:14;;;;;;;34.53;23.60;;;;;;;25.87;52.26;100758.53;5018933;28;20501;-74
2021/09/09 11:34:43;;;;;;;15.25;8.18;;;;;;;26.06;51.27;100756.94;5023354;28;20199;-75